Roseto, Pennsylvania
Current Conditions -  °F | °C
As of 4:51 AM on Friday 28 Nov 2014 (Local Time) from KABE Reporting Station
Clear Clear  
Wind Chill: 17°   Ceiling: Unl
Heat Index: 24°   Visibility: 10mi
Dew Point: 20°   Wind: 6mph
Humidity: 84%   Direction: 240°WSW
Pressure: 30.11"   Gusts: NA
Location:  40.8463°N, 75.1731°W
Report Text: KABE 280951Z 24005KT 10SM CLR M04/M07 A3011 RMK AO2 SLP200 T10441067 $
Loading
Personal Weather Stations






























Interactive Weather Map New forecast layout! Learn more

10-Day Weather Forecast

Advertisements
Track Severe Weather on mobile